Time;durP1;ratioP1;P1;durP2;ratioP2;P2;SDS_P1;SDS_P2;PMS_P1;PMS_P2;Temp;Humidity;BMP_temperature;BMP_pressure;BME280_temperature;BME280_humidity;BME280_pressure;Samples;Min_cycle;Max_cycle;Signal;HPM_P1;HPM_P2
2023/06/22 00:02:17;;;;;;;11.65;5.15;;;;;;;20.68;100.00;98778.72;5027051;28;20018;-76
2023/06/22 00:04:42;;;;;;;7.40;4.88;;;;;;;20.66;100.00;98780.09;5029076;28;20056;-77
2023/06/22 00:07:08;;;;;;;8.65;5.05;;;;;;;20.62;100.00;98768.81;5022163;28;20034;-76
2023/06/22 00:09:33;;;;;;;9.05;5.00;;;;;;;20.54;100.00;98755.56;5022474;28;20033;-77
2023/06/22 00:11:59;;;;;;;7.90;4.80;;;;;;;20.44;100.00;98741.78;5026088;28;20040;-77
2023/06/22 00:14:24;;;;;;;6.78;3.95;;;;;;;20.46;100.00;98761.56;5020844;28;20030;-77
2023/06/22 00:16:53;;;;;;;13.10;5.95;;;;;;;20.42;100.00;98761.28;5025607;28;20061;-77
2023/06/22 00:19:19;;;;;;;;;;;;;;;20.44;100.00;98770.09;5029056;28;20396;-77
2023/06/22 00:21:46;;;;;;;9.88;4.80;;;;;;;20.39;100.00;98774.75;5029620;28;19913;-77
2023/06/22 00:24:12;;;;;;;7.07;4.72;;;;;;;20.18;100.00;98769.16;5026159;28;20030;-77
2023/06/22 00:26:37;;;;;;;10.55;4.93;;;;;;;20.01;100.00;98761.06;5024000;28;20470;-77
2023/06/22 00:29:02;;;;;;;7.95;5.07;;;;;;;20.06;100.00;98783.06;5025157;28;20025;-76
2023/06/22 00:31:28;;;;;;;12.40;5.63;;;;;;;19.92;100.00;98763.50;5031402;28;20063;-77
2023/06/22 00:33:53;;;;;;;9.55;5.00;;;;;;;19.71;100.00;98731.53;5026704;28;20037;-77
2023/06/22 00:36:19;;;;;;;7.68;5.38;;;;;;;19.87;100.00;98765.41;5020721;28;20116;-78
2023/06/22 00:38:44;;;;;;;10.00;4.75;;;;;;;19.84;100.00;98783.22;5026243;28;20037;-78
2023/06/22 00:41:09;;;;;;;10.45;5.55;;;;;;;19.75;100.00;98771.06;5019745;28;20041;-77
2023/06/22 00:43:35;;;;;;;10.20;5.20;;;;;;;19.69;100.00;98774.88;5023448;28;20063;-77
2023/06/22 00:46:00;;;;;;;11.23;5.32;;;;;;;19.70;100.00;98784.75;5033532;28;20033;-78
2023/06/22 00:48:26;;;;;;;8.27;5.13;;;;;;;19.63;100.00;98778.66;5027045;28;20017;-77
2023/06/22 00:50:53;;;;;;;11.20;5.43;;;;;;;19.53;100.00;98784.88;5034123;28;20104;-77
2023/06/22 00:53:19;;;;;;;9.10;4.88;;;;;;;19.32;100.00;98767.44;5034172;28;20479;-78
2023/06/22 00:55:46;;;;;;;9.80;5.68;;;;;;;19.53;100.00;98812.31;5020227;28;20041;-77
2023/06/22 00:58:12;;;;;;;10.85;5.43;;;;;;;19.41;100.00;98798.78;5034754;28;20032;-78
2023/06/22 01:00:41;;;;;;;13.27;5.95;;;;;;;19.40;100.00;98812.75;5025072;28;20021;-77
2023/06/22 01:03:08;;;;;;;9.82;6.15;;;;;;;19.41;100.00;98823.50;5018948;28;20033;-75
2023/06/22 01:05:35;;;;;;;10.30;5.72;;;;;;;19.51;100.00;98857.59;5028123;28;20045;-75
2023/06/22 01:08:30;;;;;;;17.30;5.78;;;;;;;19.44;100.00;98877.84;5026297;28;20033;-75
2023/06/22 01:11:05;;;;;;;9.00;5.03;;;;;;;19.26;100.00;98889.19;5027884;28;20492;-75
2023/06/22 01:13:49;;;;;;;7.15;4.72;;;;;;;19.29;100.00;98923.50;5046147;28;20029;-75
2023/06/22 01:16:23;;;;;;;7.93;5.10;;;;;;;19.19;100.00;98936.00;5036026;28;20026;-75
2023/06/22 01:18:51;;;;;;;10.20;5.15;;;;;;;19.10;100.00;98912.00;5027981;28;20061;-74
2023/06/22 01:21:20;;;;;;;11.23;5.32;;;;;;;19.02;100.00;98899.56;5029483;28;20104;-74
2023/06/22 01:24:00;;;;;;;8.45;5.38;;;;;;;19.10;100.00;98901.03;5027384;28;20064;-75
2023/06/22 01:26:34;;;;;;;7.90;4.88;;;;;;;19.10;100.00;98906.53;5029138;28;20032;-74
2023/06/22 01:29:01;;;;;;;15.35;5.63;;;;;;;19.05;100.00;98893.59;5020353;28;20571;-74
2023/06/22 01:31:29;;;;;;;11.02;6.25;;;;;;;19.07;100.00;98883.19;5016850;28;20034;-74
2023/06/22 01:34:05;;;;;;;12.00;6.07;;;;;;;19.14;100.00;98892.03;5028441;28;20383;-75
2023/06/22 01:36:33;;;;;;;12.30;6.47;;;;;;;18.97;100.00;98881.19;5024215;28;20025;-75
2023/06/22 01:38:58;;;;;;;10.98;6.45;;;;;;;18.91;100.00;98882.19;5031226;28;20109;-75
2023/06/22 01:41:29;;;;;;;13.70;6.47;;;;;;;18.89;100.00;98875.28;5032305;28;20046;-75
2023/06/22 01:43:56;;;;;;;9.65;6.70;;;;;;;18.78;100.00;98866.13;5014279;28;20026;-75
2023/06/22 01:46:23;;;;;;;11.55;6.55;;;;;;;18.68;100.00;98852.25;5022821;28;20025;-75
2023/06/22 01:48:49;;;;;;;9.57;6.63;;;;;;;18.67;100.00;98858.84;5027582;28;20021;-75
2023/06/22 01:51:15;;;;;;;12.18;6.57;;;;;;;18.67;100.00;98850.59;5021176;28;20026;-75
2023/06/22 01:53:40;;;;;;;13.02;6.28;;;;;;;18.57;100.00;98837.59;5020543;28;20087;-74
2023/06/22 01:56:06;;;;;;;11.68;6.78;;;;;;;18.69;100.00;98860.22;5029792;28;20335;-75
2023/06/22 01:58:33;;;;;;;8.07;5.93;;;;;;;18.61;100.00;98863.41;5031727;28;20116;-75
2023/06/22 02:01:23;;;;;;;11.52;6.28;;;;;;;18.66;100.00;98874.44;5019615;28;20032;-76
2023/06/22 02:03:57;;;;;;;12.40;6.40;;;;;;;18.61;100.00;98866.16;5021185;28;20030;-75
2023/06/22 02:06:34;;;;;;;15.23;6.60;;;;;;;18.55;100.00;98862.53;5020609;28;20118;-75
2023/06/22 02:09:02;;;;;;;11.68;6.35;;;;;;;18.49;100.00;98866.25;5033331;28;20032;-76
2023/06/22 02:11:30;;;;;;;14.57;6.18;;;;;;;18.41;100.00;98872.19;5047353;28;20103;-76
2023/06/22 02:13:57;;;;;;;9.18;5.70;;;;;;;18.38;100.00;98873.53;5030422;28;20026;-74
2023/06/22 02:16:23;;;;;;;8.43;5.22;;;;;;;18.33;100.00;98869.88;5029838;28;20468;-75
2023/06/22 02:18:52;;;;;;;10.40;6.40;;;;;;;18.48;100.00;98897.50;5031046;28;20034;-75
2023/06/22 02:21:19;;;;;;;9.50;5.47;;;;;;;18.32;100.00;98855.38;5033344;28;20021;-75
2023/06/22 02:23:44;;;;;;;9.25;6.07;;;;;;;18.43;100.00;98863.72;5035878;28;20041;-75
2023/06/22 02:26:09;;;;;;;12.77;6.13;;;;;;;18.51;100.00;98866.84;5029524;28;20022;-75
2023/06/22 02:28:35;;;;;;;11.73;6.10;;;;;;;18.65;100.00;98863.72;5030453;28;20022;-75
2023/06/22 02:31:00;;;;;;;10.70;6.43;;;;;;;18.66;100.00;98874.44;5031427;28;20383;-75
2023/06/22 02:33:25;;;;;;;9.50;6.05;;;;;;;18.60;100.00;98862.59;5022365;28;20064;-75
2023/06/22 02:35:51;;;;;;;15.30;6.00;;;;;;;18.49;100.00;98843.53;5033652;28;20104;-75
2023/06/22 02:38:17;;;;;;;11.07;5.68;;;;;;;18.52;100.00;98852.09;5015038;28;20406;-76
2023/06/22 02:40:42;;;;;;;11.45;5.68;;;;;;;18.56;100.00;98855.97;5023477;28;20020;-75
2023/06/22 02:43:08;;;;;;;10.57;5.63;;;;;;;18.54;100.00;98860.84;5019126;28;20531;-75
2023/06/22 02:45:33;;;;;;;14.18;6.13;;;;;;;18.36;100.00;98842.81;5025146;28;20053;-75
2023/06/22 02:47:58;;;;;;;12.40;6.53;;;;;;;18.33;100.00;98839.75;5023078;28;20036;-75
2023/06/22 02:50:24;;;;;;;9.82;6.07;;;;;;;18.26;100.00;98841.84;5032241;28;20101;-75
2023/06/22 02:52:49;;;;;;;10.43;6.20;;;;;;;18.27;100.00;98859.94;5031461;28;20022;-75
2023/06/22 02:55:15;;;;;;;11.00;5.85;;;;;;;18.22;100.00;98848.91;5027250;28;20022;-75
2023/06/22 02:57:43;;;;;;;9.43;5.75;;;;;;;18.27;100.00;98851.72;5027441;28;20037;-75
2023/06/22 03:00:17;;;;;;;7.38;5.47;;;;;;;18.19;100.00;98839.28;5031523;28;20025;-75
2023/06/22 03:02:48;;;;;;;10.05;6.22;;;;;;;18.23;100.00;98843.16;5031116;28;20060;-75
2023/06/22 03:05:15;;;;;;;7.88;5.72;;;;;;;18.25;100.00;98851.16;5029671;28;20029;-75
2023/06/22 03:07:44;;;;;;;9.60;6.30;;;;;;;18.30;100.00;98856.69;5028334;28;20022;-75
2023/06/22 03:10:10;;;;;;;9.75;6.38;;;;;;;18.20;100.00;98837.38;5031494;28;20537;-76
2023/06/22 03:12:40;;;;;;;14.63;6.70;;;;;;;18.12;100.00;98824.94;5025558;28;20087;-70
2023/06/22 03:15:06;;;;;;;;;;;;;;;18.25;100.00;98843.75;5020244;28;20128;-73
2023/06/22 03:17:31;;;;;;;11.40;6.60;;;;;;;18.21;100.00;98839.88;5020141;28;20055;-72
2023/06/22 03:19:56;;;;;;;10.82;6.68;;;;;;;18.11;100.00;98826.03;5022488;28;20133;-72
2023/06/22 03:22:21;;;;;;;13.35;6.43;;;;;;;18.14;100.00;98829.09;5027789;28;20226;-72
2023/06/22 03:24:47;;;;;;;14.35;5.93;;;;;;;17.94;100.00;98795.94;5026732;28;20044;-74
2023/06/22 03:27:12;;;;;;;8.40;5.55;;;;;;;18.17;100.00;98828.59;5018146;28;20026;-74
2023/06/22 03:29:38;;;;;;;23.83;7.70;;;;;;;18.15;100.00;98810.75;5020315;28;20431;-74
2023/06/22 03:32:05;;;;;;;11.27;6.85;;;;;;;18.24;100.00;98816.63;5011162;28;20028;-73
2023/06/22 03:34:34;;;;;;;11.88;6.78;;;;;;;18.31;100.00;98809.03;5029113;28;20018;-74
2023/06/22 03:36:59;;;;;;;12.40;6.50;;;;;;;18.31;100.00;98804.41;5018158;28;20392;-73
2023/06/22 03:39:25;;;;;;;9.18;6.00;;;;;;;18.35;100.00;98824.72;5029609;28;20022;-74
2023/06/22 03:41:50;;;;;;;12.25;7.13;;;;;;;18.33;100.00;98821.41;5021155;28;20021;-74
2023/06/22 03:44:15;;;;;;;10.98;6.05;;;;;;;18.28;100.00;98813.13;5023507;28;20028;-73
2023/06/22 03:46:41;;;;;;;12.27;7.07;;;;;;;18.36;100.00;98809.94;5010886;28;20022;-71
2023/06/22 03:49:06;;;;;;;9.98;6.80;;;;;;;18.28;100.00;98809.56;5017467;28;20065;-71
2023/06/22 03:51:32;;;;;;;15.48;6.78;;;;;;;18.36;100.00;98814.59;5019046;28;20079;-72
2023/06/22 03:53:58;;;;;;;13.32;7.10;;;;;;;18.45;100.00;98815.81;5024414;28;20033;-73
2023/06/22 03:56:23;;;;;;;12.95;5.95;;;;;;;18.57;100.00;98827.47;5026413;28;20384;-70
2023/06/22 03:58:48;;;;;;;10.52;6.30;;;;;;;18.47;100.00;98815.53;5020108;28;20041;-70
2023/06/22 04:01:13;;;;;;;9.30;6.03;;;;;;;18.42;100.00;98797.16;5023842;28;20025;-71
2023/06/22 04:03:39;;;;;;;9.73;6.28;;;;;;;18.50;100.00;98818.63;5027717;28;20387;-72
2023/06/22 04:06:05;;;;;;;15.30;6.78;;;;;;;18.52;100.00;98797.28;5021844;28;20064;-72
2023/06/22 04:08:30;;;;;;;12.10;6.57;;;;;;;18.73;100.00;98803.84;5018710;28;20030;-74
2023/06/22 04:10:55;;;;;;;12.25;6.25;;;;;;;18.77;100.00;98788.56;5026999;28;20033;-74
2023/06/22 04:13:21;;;;;;;12.02;6.38;;;;;;;18.97;100.00;98795.34;5035738;28;20368;-75
2023/06/22 04:15:46;;;;;;;11.27;6.38;;;;;;;18.93;100.00;98764.03;5035361;28;20025;-74
2023/06/22 04:18:11;;;;;;;13.50;6.88;;;;;;;19.10;100.00;98762.03;5028364;28;20037;-75
2023/06/22 04:20:36;;;;;;;15.02;6.32;;;;;;;19.20;100.00;98753.03;5026282;28;20041;-74
2023/06/22 04:23:02;;;;;;;15.25;7.03;;;;;;;19.42;100.00;98766.69;5025402;28;20077;-74
2023/06/22 04:25:27;;;;;;;12.25;7.07;;;;;;;19.55;100.00;98748.97;5030846;28;20028;-73
2023/06/22 04:27:52;;;;;;;12.88;6.72;;;;;;;19.77;100.00;98763.41;5027712;28;20029;-75
2023/06/22 04:30:18;;;;;;;9.98;6.38;;;;;;;19.99;100.00;98754.19;5032990;28;20031;-71
2023/06/22 04:32:44;;;;;;;11.23;6.55;;;;;;;20.15;100.00;98750.47;5016731;28;20392;-71
2023/06/22 04:35:10;;;;;;;14.07;6.20;;;;;;;20.33;100.00;98740.91;5031411;28;20029;-75
2023/06/22 04:37:36;;;;;;;7.32;5.30;;;;;;;20.44;100.00;98741.78;5021605;28;20480;-79
2023/06/22 04:40:01;;;;;;;11.35;6.30;;;;;;;20.60;100.00;98732.50;5028632;28;20025;-74
2023/06/22 04:42:27;;;;;;;10.93;6.57;;;;;;;20.70;100.00;98728.97;5034685;28;20033;-73
2023/06/22 04:44:52;;;;;;;10.30;5.97;;;;;;;20.86;100.00;98724.34;5030953;28;20423;-75
2023/06/22 04:47:18;;;;;;;9.13;5.72;;;;;;;21.05;100.00;98716.38;5026517;28;20038;-69
2023/06/22 04:49:43;;;;;;;9.70;6.13;;;;;;;21.20;100.00;98713.63;5031587;28;20041;-70
2023/06/22 04:52:10;;;;;;;12.48;6.13;;;;;;;21.34;100.00;98719.41;5019047;28;20479;-74
2023/06/22 04:54:37;;;;;;;13.10;5.57;;;;;;;21.46;100.00;98717.22;5027507;28;20055;-71
2023/06/22 04:57:05;;;;;;;12.20;5.10;;;;;;;21.50;100.00;98718.31;5025740;28;20043;-67
2023/06/22 04:59:31;;;;;;;11.18;5.75;;;;;;;21.59;100.00;98713.91;5034753;28;20043;-74
2023/06/22 05:01:58;;;;;;;8.65;5.38;;;;;;;21.73;100.00;98716.09;5028271;28;20052;-68
2023/06/22 05:04:24;;;;;;;9.90;5.38;;;;;;;21.89;100.00;98709.44;5025202;28;20031;-69
2023/06/22 05:06:50;;;;;;;10.57;5.43;;;;;;;22.04;100.00;98705.81;5019664;28;20188;-68
2023/06/22 05:09:17;;;;;;;8.57;5.38;;;;;;;22.06;100.00;98690.66;5031856;28;20071;-68
2023/06/22 05:11:42;;;;;;;8.65;5.30;;;;;;;22.36;100.00;98686.13;5029950;28;20025;-66
2023/06/22 05:14:07;;;;;;;12.10;5.50;;;;;;;22.63;100.00;98688.44;5026202;28;20048;-70
2023/06/22 05:16:33;;;;;;;9.38;4.97;;;;;;;22.90;100.00;98701.00;5033416;28;20029;-68
2023/06/22 05:18:58;;;;;;;8.70;5.13;;;;;;;23.14;100.00;98698.34;5028045;28;20033;-70
2023/06/22 05:21:26;;;;;;;7.25;4.45;;;;;;;23.37;100.00;98692.06;5029031;28;20491;-70
2023/06/22 05:23:52;;;;;;;9.82;5.20;;;;;;;23.53;100.00;98683.66;5023530;28;20033;-65
2023/06/22 05:26:18;;;;;;;6.95;4.20;;;;;;;23.78;100.00;98675.09;5025334;28;20033;-65
2023/06/22 05:28:45;;;;;;;9.45;4.78;;;;;;;23.86;100.00;98678.34;5021969;28;20021;-64
2023/06/22 05:31:14;;;;;;;7.97;5.07;;;;;;;23.69;100.00;98682.38;5020022;28;20025;-64
2023/06/22 05:33:41;;;;;;;7.50;4.00;;;;;;;23.88;100.00;98681.66;5026779;28;20056;-64
2023/06/22 05:36:06;;;;;;;10.95;4.50;;;;;;;23.49;100.00;98666.00;5016525;28;20030;-64
2023/06/22 05:38:32;;;;;;;7.95;4.57;;;;;;;23.40;100.00;98663.88;5019185;28;20099;-64
2023/06/22 05:40:57;;;;;;;7.50;4.47;;;;;;;23.69;100.00;98679.59;5025789;28;20026;-64
2023/06/22 05:43:22;;;;;;;10.98;4.43;;;;;;;23.95;100.00;98676.59;5024039;28;20399;-64
2023/06/22 05:45:48;;;;;;;10.05;4.50;;;;;;;24.22;100.00;98662.16;5020414;28;20049;-73
2023/06/22 05:48:13;;;;;;;6.45;4.05;;;;;;;24.43;100.00;98659.94;5019214;28;20079;-73
2023/06/22 05:50:38;;;;;;;8.07;4.80;;;;;;;24.67;100.00;98646.88;5027668;28;20491;-70
2023/06/22 05:53:04;;;;;;;11.23;4.63;;;;;;;24.78;100.00;98657.78;5020075;28;20025;-68
2023/06/22 05:55:29;;;;;;;10.27;4.28;;;;;;;24.84;100.00;98660.19;5015950;28;20029;-70
2023/06/22 05:57:54;;;;;;;5.90;4.20;;;;;;;24.58;100.00;98651.47;5016508;28;20026;-67
2023/06/22 06:00:21;;;;;;;8.35;4.50;;;;;;;24.54;100.00;98655.94;5017809;28;20029;-69
2023/06/22 06:02:49;;;;;;;7.05;4.43;;;;;;;24.25;100.00;98661.56;5024942;28;20039;-69
2023/06/22 06:05:14;;;;;;;6.80;4.18;;;;;;;24.26;100.00;98664.03;5029155;28;20025;-70
2023/06/22 06:07:43;;;;;;;6.68;3.95;;;;;;;24.33;100.00;98666.41;5023341;28;20028;-72
2023/06/22 06:10:09;;;;;;;8.88;4.68;;;;;;;24.19;100.00;98654.47;5033023;28;20056;-70
2023/06/22 06:12:34;;;;;;;9.60;4.57;;;;;;;24.23;100.00;98663.78;5031861;28;20033;-67
2023/06/22 06:15:00;;;;;;;9.23;4.95;;;;;;;24.20;100.00;98651.38;5031268;28;20025;-69
2023/06/22 06:17:25;;;;;;;6.70;4.10;;;;;;;24.65;100.00;98664.91;5025922;28;20028;-68
2023/06/22 06:19:50;;;;;;;9.00;5.00;;;;;;;25.01;100.00;98664.34;5029287;28;20033;-70
2023/06/22 06:22:15;;;;;;;9.13;4.38;;;;;;;25.08;100.00;98659.25;5012874;28;20951;-69
2023/06/22 06:24:41;;;;;;;14.10;4.35;;;;;;;25.29;100.00;98665.31;5027958;28;20021;-70
2023/06/22 06:27:06;;;;;;;9.70;4.53;;;;;;;25.52;100.00;98663.50;5025300;28;20029;-71
2023/06/22 06:29:32;;;;;;;7.47;4.18;;;;;;;25.93;100.00;98649.69;5026516;28;20040;-68
2023/06/22 06:31:57;;;;;;;8.35;4.07;;;;;;;26.39;100.00;98656.25;5020211;28;20519;-68
2023/06/22 06:34:23;;;;;;;8.38;4.07;;;;;;;26.76;100.00;98649.59;5019908;28;20057;-68
2023/06/22 06:36:48;;;;;;;7.55;3.97;;;;;;;26.36;100.00;98648.53;5028254;28;20510;-71
2023/06/22 06:39:13;;;;;;;8.00;4.40;;;;;;;26.67;100.00;98652.28;5027756;28;20156;-65
2023/06/22 06:41:39;;;;;;;6.18;3.95;;;;;;;26.75;100.00;98627.69;5025991;28;20037;-66
2023/06/22 06:44:04;;;;;;;6.53;3.88;;;;;;;27.14;100.00;98645.59;5030989;28;20033;-66
2023/06/22 06:46:29;;;;;;;6.53;3.92;;;;;;;27.06;100.00;98647.19;5011986;28;20388;-66
2023/06/22 06:48:55;;;;;;;7.95;4.57;;;;;;;27.24;100.00;98648.16;5023589;28;20049;-66
2023/06/22 06:51:20;;;;;;;6.70;4.03;;;;;;;27.56;100.00;98657.31;5012577;28;20550;-66
2023/06/22 06:53:52;;;;;;;8.77;4.18;;;;;;;27.99;100.00;98665.09;5148892;27;20396;-47
2023/06/22 06:56:18;;;;;;;6.00;3.97;;;;;;;29.03;100.00;98654.94;5113000;28;20140;-48
2023/06/22 06:58:45;;;;;;;7.13;4.15;;;;;;;30.92;100.00;98664.00;5099231;28;20028;-47
2023/06/22 07:01:11;;;;;;;5.05;4.07;;;;;;;32.45;95.25;98656.50;5085617;28;20038;-47
2023/06/22 07:03:37;;;;;;;7.70;4.22;;;;;;;33.72;79.09;98654.19;5083149;28;20038;-48
2023/06/22 07:06:02;;;;;;;8.90;3.90;;;;;;;35.07;70.52;98663.38;5092311;28;20367;-48
2023/06/22 07:08:28;;;;;;;6.22;3.97;;;;;;;35.43;66.43;98650.84;5100234;28;20054;-48
2023/06/22 07:10:54;;;;;;;6.50;3.92;;;;;;;36.28;64.06;98652.75;5091875;28;20059;-47
2023/06/22 07:13:19;;;;;;;6.22;3.60;;;;;;;36.02;60.54;98650.69;5088298;28;20026;-46
2023/06/22 07:15:45;;;;;;;7.32;3.40;;;;;;;35.46;61.71;98650.09;5091501;28;20376;-46
2023/06/22 07:18:10;;;;;;;7.95;3.72;;;;;;;36.00;60.65;98645.47;5082511;28;20026;-47
2023/06/22 07:20:35;;;;;;;7.97;3.55;;;;;;;36.78;57.50;98628.91;5090344;28;20043;-47
2023/06/22 07:23:01;;;;;;;4.93;3.30;;;;;;;37.61;55.17;98619.44;5091215;28;20348;-48
2023/06/22 07:25:26;;;;;;;7.93;3.80;;;;;;;37.19;56.22;98620.59;5076514;28;20020;-47
2023/06/22 07:28:02;;;;;;;5.85;3.70;;;;;;;37.43;54.26;98624.06;5091538;28;20051;-47
2023/06/22 07:30:27;;;;;;;6.93;3.75;;;;;;;37.60;52.94;98616.97;5097630;28;20069;-47
2023/06/22 07:32:53;;;;;;;6.53;2.88;;;;;;;36.82;53.64;98606.44;5089763;28;20020;-47
2023/06/22 07:35:18;;;;;;;7.22;3.75;;;;;;;35.89;53.31;98591.75;5077316;28;20032;-47
2023/06/22 07:37:44;;;;;;;9.38;3.35;;;;;;;36.33;54.21;98590.44;5088135;28;20715;-47
2023/06/22 07:40:10;;;;;;;7.53;3.45;;;;;;;36.44;53.90;98594.22;5084874;28;20016;-47
2023/06/22 07:42:36;;;;;;;6.95;3.65;;;;;;;37.43;51.08;98591.00;5085088;28;20044;-47
2023/06/22 07:45:03;;;;;;;5.80;3.10;;;;;;;37.92;50.12;98586.22;5096311;28;20016;-47
2023/06/22 07:47:29;;;;;;;5.18;3.42;;;;;;;38.16;50.56;98581.97;5092139;28;20084;-46
2023/06/22 07:49:57;;;;;;;5.82;3.33;;;;;;;37.35;50.28;98582.84;5097209;28;20539;-46
2023/06/22 07:52:23;;;;;;;5.50;3.15;;;;;;;36.64;52.22;98573.19;5080049;28;20371;-46
2023/06/22 07:54:48;;;;;;;8.13;3.70;;;;;;;35.54;54.24;98577.88;5095859;28;20468;-46
2023/06/22 07:57:14;;;;;;;6.70;3.13;;;;;;;36.35;53.63;98571.16;5089822;28;20031;-47
2023/06/22 07:59:39;;;;;;;8.93;3.75;;;;;;;36.17;53.79;98570.91;5090688;28;20028;-46
2023/06/22 08:02:05;;;;;;;7.10;3.65;;;;;;;36.08;54.63;98571.19;5086013;28;20074;-46
2023/06/22 08:04:31;;;;;;;7.50;3.92;;;;;;;36.44;53.15;98563.22;5078371;28;20455;-46
2023/06/22 08:06:57;;;;;;;8.00;3.22;;;;;;;37.81;50.63;98565.53;5071983;28;20494;-46
2023/06/22 08:09:22;;;;;;;5.18;3.38;;;;;;;38.12;49.74;98569.81;5071881;28;20032;-46
2023/06/22 08:11:49;;;;;;;6.97;3.38;;;;;;;39.24;47.65;98577.63;5074976;28;20024;-46
2023/06/22 08:14:14;;;;;;;7.95;3.47;;;;;;;40.40;44.57;98573.59;5073045;28;20043;-47
2023/06/22 08:16:41;;;;;;;6.13;3.63;;;;;;;39.72;45.41;98574.47;5076285;28;20028;-47
2023/06/22 08:19:06;;;;;;;9.00;3.35;;;;;;;40.86;44.40;98575.47;5067862;28;20486;-47
2023/06/22 08:21:32;;;;;;;7.75;3.30;;;;;;;39.77;44.10;98571.22;5073546;28;20032;-47
2023/06/22 08:23:57;;;;;;;5.47;3.47;;;;;;;41.42;42.48;98569.88;5075110;28;20032;-48
2023/06/22 08:26:23;;;;;;;5.90;3.08;;;;;;;40.73;43.42;98586.47;5079546;28;20374;-47
2023/06/22 08:28:48;;;;;;;5.13;3.03;;;;;;;41.55;42.12;98585.22;5077294;28;20032;-47
2023/06/22 08:31:14;;;;;;;8.30;3.45;;;;;;;42.49;39.29;98596.56;5082867;28;20433;-47
2023/06/22 08:33:40;;;;;;;4.75;2.88;;;;;;;42.74;38.98;98596.28;5075797;28;20016;-47
2023/06/22 08:36:06;;;;;;;6.20;3.47;;;;;;;40.01;42.71;98597.13;5066577;28;20139;-47
2023/06/22 08:38:31;;;;;;;6.15;3.13;;;;;;;39.45;44.07;98593.84;5080420;28;20138;-47
2023/06/22 08:40:57;;;;;;;4.80;2.90;;;;;;;39.01;44.06;98604.25;5070919;28;20028;-47
2023/06/22 08:43:22;;;;;;;6.90;3.25;;;;;;;38.71;44.95;98592.38;5073265;28;20020;-47
2023/06/22 08:45:48;;;;;;;7.45;3.85;;;;;;;36.21;49.60;98583.03;5064687;28;20074;-48
2023/06/22 08:48:14;;;;;;;10.88;3.47;;;;;;;34.86;53.30;98588.66;5076604;28;20357;-48
2023/06/22 08:50:40;;;;;;;4.93;3.53;;;;;;;34.92;53.58;98586.34;5078598;28;20537;-48
2023/06/22 08:53:06;;;;;;;5.97;3.78;;;;;;;34.74;55.64;98576.75;5092686;28;20020;-47
2023/06/22 08:55:31;;;;;;;6.93;3.17;;;;;;;35.02;55.87;98576.50;5077625;28;20131;-47
2023/06/22 08:57:57;;;;;;;5.82;3.30;;;;;;;34.92;55.92;98563.84;5074128;28;20031;-47
2023/06/22 09:00:22;;;;;;;6.18;2.92;;;;;;;34.14;58.99;98574.22;5074259;28;20043;-47
2023/06/22 09:02:48;;;;;;;7.75;3.30;;;;;;;33.46;59.87;98583.72;5089068;28;20028;-47
2023/06/22 09:05:14;;;;;;;6.15;3.20;;;;;;;33.03;62.47;98589.00;5076482;28;20016;-47
2023/06/22 09:07:40;;;;;;;4.65;3.00;;;;;;;32.17;67.23;98586.41;5078658;28;20030;-47
2023/06/22 09:10:06;;;;;;;6.85;3.50;;;;;;;31.64;69.64;98585.47;5074842;28;20054;-51
2023/06/22 09:12:32;;;;;;;8.13;3.55;;;;;;;32.47;72.18;98589.78;5071598;28;20035;-51
2023/06/22 09:15:00;;;;;;;6.70;3.53;;;;;;;33.49;69.42;98611.06;5074049;28;20081;-51
2023/06/22 09:17:25;;;;;;;7.82;3.00;;;;;;;35.16;63.53;98615.34;5068525;28;20024;-51
2023/06/22 09:19:51;;;;;;;7.45;3.15;;;;;;;35.05;60.22;98617.94;5067248;28;20028;-51
2023/06/22 09:22:16;;;;;;;6.70;3.35;;;;;;;37.82;54.33;98626.47;5073049;28;20078;-51
2023/06/22 09:24:41;;;;;;;10.63;3.30;;;;;;;40.08;49.59;98634.75;5056815;28;20456;-51
2023/06/22 09:27:07;;;;;;;4.25;3.10;;;;;;;40.53;46.44;98618.13;5074283;28;20387;-51
2023/06/22 09:29:33;;;;;;;6.63;3.45;;;;;;;43.73;43.70;98593.28;5080251;28;20049;-51
2023/06/22 09:32:00;;;;;;;6.65;2.97;;;;;;;46.12;39.01;98584.59;5066475;28;20059;-51
2023/06/22 09:34:25;;;;;;;5.47;2.95;;;;;;;46.12;36.73;98596.03;5081330;28;20505;-48
2023/06/22 09:36:51;;;;;;;6.80;2.80;;;;;;;44.26;39.42;98593.63;5074957;28;20115;-49
2023/06/22 09:39:18;;;;;;;8.50;2.85;;;;;;;41.73;41.71;98579.41;5075475;28;20055;-49
2023/06/22 09:41:43;;;;;;;6.35;3.38;;;;;;;39.09;46.56;98575.97;5076109;28;20028;-48
2023/06/22 09:44:08;;;;;;;6.90;2.60;;;;;;;39.87;47.41;98550.59;5084025;28;20177;-48
2023/06/22 09:46:34;;;;;;;5.65;2.60;;;;;;;41.76;43.37;98556.63;5077185;28;20070;-48
2023/06/22 09:48:59;;;;;;;7.32;2.88;;;;;;;42.96;41.72;98540.72;5071501;28;20054;-48
2023/06/22 09:51:25;;;;;;;8.95;2.90;;;;;;;44.16;38.23;98529.84;5062836;28;20039;-48
2023/06/22 09:53:51;;;;;;;7.85;3.35;;;;;;;44.98;37.16;98524.47;5076304;28;20020;-48
2023/06/22 09:56:16;;;;;;;7.25;2.75;;;;;;;46.07;36.14;98538.56;5074815;28;20028;-48
2023/06/22 09:58:43;;;;;;;5.30;2.80;;;;;;;45.47;35.96;98527.41;5074033;28;20034;-49
2023/06/22 10:01:10;;;;;;;7.00;2.65;;;;;;;46.77;35.08;98519.81;5068739;28;20031;-49
2023/06/22 10:03:35;;;;;;;5.83;2.33;;;;;;;46.35;36.00;98514.09;5069264;28;20108;-49
2023/06/22 10:06:01;;;;;;;6.80;2.78;;;;;;;44.46;36.22;98517.44;5071623;28;20024;-48
2023/06/22 10:08:26;;;;;;;10.60;3.13;;;;;;;42.24;37.95;98516.00;5082504;28;20020;-48
2023/06/22 10:10:52;;;;;;;5.32;2.97;;;;;;;41.58;39.92;98493.50;5076808;28;20097;-48
2023/06/22 10:13:18;;;;;;;6.65;3.20;;;;;;;40.00;40.99;98505.66;5075856;28;20406;-48
2023/06/22 10:15:49;;;;;;;10.13;3.22;;;;;;;41.27;41.38;98501.88;5066776;28;20540;-48
2023/06/22 10:18:16;;;;;;;8.35;3.22;;;;;;;41.64;41.99;98502.41;5071330;28;20020;-49
2023/06/22 10:20:41;;;;;;;7.95;3.22;;;;;;;44.56;38.30;98493.56;5075402;28;20467;-49
2023/06/22 10:23:08;;;;;;;7.57;3.00;;;;;;;43.33;36.98;98505.59;5075080;28;20020;-49
2023/06/22 10:25:34;;;;;;;6.68;2.97;;;;;;;41.48;40.17;98505.75;5075948;28;20024;-49
2023/06/22 10:27:59;;;;;;;5.38;3.28;;;;;;;40.59;41.98;98507.91;5075405;28;20027;-49
2023/06/22 10:30:25;;;;;;;8.30;3.10;;;;;;;39.63;44.69;98515.38;5063947;28;20032;-49
2023/06/22 10:32:50;;;;;;;6.80;3.30;;;;;;;39.73;46.56;98504.47;5080684;28;20077;-49
2023/06/22 10:35:16;;;;;;;6.15;2.88;;;;;;;39.34;44.71;98489.13;5090897;28;20031;-49
2023/06/22 10:37:45;;;;;;;6.65;2.83;;;;;;;40.59;44.60;98485.22;5089461;28;20467;-49
2023/06/22 10:40:13;;;;;;;8.65;3.17;;;;;;;39.91;42.43;98481.81;5067963;28;20016;-48
2023/06/22 10:42:38;;;;;;;6.47;3.15;;;;;;;41.28;41.50;98480.75;5078721;28;20020;-48
2023/06/22 10:45:04;;;;;;;11.45;2.70;;;;;;;41.99;41.11;98469.97;5071126;28;20042;-48
2023/06/22 10:47:29;;;;;;;9.57;3.67;;;;;;;40.67;40.06;98466.97;5081840;28;20395;-49
2023/06/22 10:49:55;;;;;;;6.88;2.95;;;;;;;39.53;41.77;98465.22;5071165;28;20032;-48
2023/06/22 10:52:20;;;;;;;6.80;3.28;;;;;;;38.91;42.83;98463.59;5081379;28;20073;-48
2023/06/22 10:54:46;;;;;;;7.50;2.90;;;;;;;37.26;45.39;98454.22;5074106;28;21166;-48
2023/06/22 10:57:12;;;;;;;11.30;3.30;;;;;;;38.05;44.90;98454.78;5074681;28;20468;-48
2023/06/22 10:59:37;;;;;;;7.32;3.28;;;;;;;39.01;42.74;98445.00;5072121;28;20066;-48
2023/06/22 11:02:03;;;;;;;5.82;2.88;;;;;;;38.45;42.97;98435.19;5070563;28;20048;-48
2023/06/22 11:04:28;;;;;;;6.13;3.42;;;;;;;37.93;44.86;98440.97;5076773;28;20024;-48
2023/06/22 11:06:53;;;;;;;6.82;3.10;;;;;;;37.74;45.64;98435.63;5092686;28;20035;-48
2023/06/22 11:09:21;;;;;;;8.60;2.85;;;;;;;37.79;45.75;98441.69;5076139;28;20112;-48
2023/06/22 11:11:54;;;;;;;6.25;3.15;;;;;;;37.31;45.27;98435.28;5070935;28;20388;-48
2023/06/22 11:14:20;;;;;;;7.85;3.00;;;;;;;37.35;47.13;98431.28;5081500;28;20032;-48
2023/06/22 11:16:46;;;;;;;7.88;3.45;;;;;;;37.42;46.44;98442.63;5066888;28;20036;-48
2023/06/22 11:19:12;;;;;;;9.73;3.55;;;;;;;37.69;46.05;98439.63;5073036;28;20046;-48
2023/06/22 11:21:37;;;;;;;7.80;3.10;;;;;;;38.19;45.14;98439.91;5082200;28;20473;-48
2023/06/22 11:24:03;;;;;;;9.95;3.08;;;;;;;38.64;46.10;98428.34;5081640;28;20030;-49